McCullers, North Carolina
Current Conditions -  °F | °C
As of 6:51 PM on Friday 24 Oct 2014 (Local Time) from KRDU Reporting Station
Broken Clouds Broken Clouds  
Wind Chill: 58°   Ceiling: 20000
Heat Index: 58°   Visibility: 10mi
Dew Point: 48°   Wind: 3mph
Humidity: 70%   Direction: 250°WSW
Pressure: 29.98"   Gusts: NA
Location:  35.6675°N, 78.6629°W
Report Text: KRDU 242251Z 25003KT 10SM BKN200 BKN250 14/09 A2998 RMK AO2 SLP150 T01440089 $
Loading
Personal Weather Stations






























Interactive Weather Map
Tropical Storm Tracking
New forecast layout! Learn more

10-Day Weather Forecast

Advertisements
Track Severe Weather on mobile